createdAt,value
2016-07-13T00:00:00.185Z,23.63
2016-07-13T00:01:00.163Z,23.68
2016-07-13T00:01:59.439Z,23.64
2016-07-13T00:02:59.427Z,23.71
2016-07-13T00:03:59.419Z,23.64
2016-07-13T00:05:00.102Z,23.69
2016-07-13T00:05:59.383Z,23.63
2016-07-13T00:06:59.375Z,23.62
2016-07-13T00:07:59.346Z,23.68
2016-07-13T00:09:00.039Z,23.68
2016-07-13T00:09:59.324Z,23.71
2016-07-13T00:10:59.301Z,23.67
2016-07-13T00:12:00.000Z,23.68
2016-07-13T00:12:59.987Z,23.62
2016-07-13T00:13:59.265Z,23.72
2016-07-13T00:14:59.960Z,23.68
2016-07-13T00:15:59.247Z,23.69
2016-07-13T00:16:59.933Z,23.68
2016-07-13T00:17:59.211Z,23.71
2016-07-13T00:18:59.901Z,23.68
2016-07-13T00:19:59.181Z,23.67
2016-07-13T00:20:59.872Z,23.71
2016-07-13T00:21:59.858Z,23.68
2016-07-13T00:22:59.837Z,23.71
2016-07-13T00:23:59.119Z,23.72
2016-07-13T00:24:59.820Z,23.75
2016-07-13T00:25:59.804Z,23.77
2016-07-13T00:26:59.777Z,23.72
2016-07-13T00:27:59.773Z,23.77
2016-07-13T00:28:59.765Z,23.74
2016-07-13T00:29:59.032Z,23.67
2016-07-13T00:30:59.723Z,23.74
2016-07-13T00:31:59.711Z,23.75
2016-07-13T00:32:59.694Z,23.77
2016-07-13T00:33:59.687Z,23.68
2016-07-13T00:34:58.960Z,23.68
2016-07-13T00:35:59.655Z,23.71
2016-07-13T00:36:58.929Z,23.63
2016-07-13T00:37:58.928Z,23.77
2016-07-13T00:38:59.606Z,23.64
2016-07-13T00:39:59.600Z,23.72
2016-07-13T00:40:58.160Z,23.75
2016-07-13T00:41:59.568Z,23.71
2016-07-13T00:42:59.560Z,23.72
2016-07-13T00:43:59.539Z,23.67
2016-07-13T00:44:58.805Z,23.81
2016-07-13T00:45:59.526Z,23.72
2016-07-13T00:46:59.487Z,23.72
2016-07-13T00:47:59.478Z,23.68
2016-07-13T00:48:58.767Z,23.63
2016-07-13T00:49:58.739Z,23.69
2016-07-13T00:50:59.440Z,23.69
2016-07-13T00:51:59.414Z,23.67
2016-07-13T00:52:59.412Z,23.75
2016-07-13T00:53:59.393Z,23.84
2016-07-13T00:54:59.380Z,23.81
2016-07-13T00:55:59.356Z,23.82
2016-07-13T00:56:59.350Z,23.74
2016-07-13T00:57:59.331Z,23.78
2016-07-13T00:58:59.326Z,23.78
2016-07-13T00:59:59.306Z,23.77
2016-07-13T01:00:59.307Z,23.67
2016-07-13T01:01:59.269Z,23.78
2016-07-13T01:02:59.253Z,23.52
2016-07-13T01:03:59.246Z,23.34
2016-07-13T01:04:59.238Z,23.07
2016-07-13T01:05:59.214Z,23.01
2016-07-13T01:06:59.207Z,22.91
2016-07-13T01:07:58.480Z,22.85
2016-07-13T01:08:58.463Z,22.7
2016-07-13T01:09:59.158Z,22.72
2016-07-13T01:10:59.142Z,22.61
2016-07-13T01:11:59.143Z,22.61
2016-07-13T01:12:59.119Z,22.57
2016-07-13T01:13:59.104Z,22.46
2016-07-13T01:14:59.084Z,22.57
2016-07-13T01:15:59.068Z,22.54
2016-07-13T01:16:59.062Z,22.46
2016-07-13T01:17:59.036Z,22.48
2016-07-13T01:18:59.039Z,22.54
2016-07-13T01:19:58.298Z,22.45
2016-07-13T01:20:58.995Z,22.45
2016-07-13T01:21:58.978Z,22.54
2016-07-13T01:22:58.972Z,22.57
2016-07-13T01:23:58.949Z,22.54
2016-07-13T01:24:58.937Z,22.46
2016-07-13T01:25:58.919Z,22.54
2016-07-13T01:26:58.910Z,22.54
2016-07-13T01:27:58.899Z,22.45
2016-07-13T01:28:58.881Z,22.35
2016-07-13T01:29:58.862Z,22.36
2016-07-13T01:30:58.848Z,22.36
2016-07-13T01:31:58.833Z,22.31
2016-07-13T01:32:58.819Z,22.36
2016-07-13T01:33:58.803Z,22.36
2016-07-13T01:34:58.782Z,22.41
2016-07-13T01:35:58.771Z,22.3
2016-07-13T01:36:58.759Z,22.35
2016-07-13T01:37:58.747Z,22.3
2016-07-13T01:38:58.732Z,22.2
2016-07-13T01:39:58.712Z,22.27
2016-07-13T01:40:58.697Z,22.24
2016-07-13T01:41:58.682Z,22.26
2016-07-13T01:42:58.673Z,22.21
2016-07-13T01:43:58.656Z,22.2
2016-07-13T01:44:58.636Z,22.17
2016-07-13T01:45:58.632Z,22.17
2016-07-13T01:46:58.607Z,22.15
2016-07-13T01:47:57.884Z,22.15
2016-07-13T01:48:58.579Z,22.2
2016-07-13T01:49:58.560Z,22.14
2016-07-13T01:50:58.554Z,22.17
2016-07-13T01:51:58.532Z,22.14
2016-07-13T01:52:58.523Z,22.15
2016-07-13T01:53:58.504Z,22.17
2016-07-13T01:54:58.495Z,22.05
2016-07-13T01:55:58.467Z,22.09
2016-07-13T01:56:58.457Z,21.99
2016-07-13T01:57:58.442Z,22.04
2016-07-13T01:58:58.431Z,22.08
2016-07-13T01:59:58.409Z,22.08
2016-07-13T02:00:58.396Z,22.02
2016-07-13T02:01:58.375Z,22.06
2016-07-13T02:02:58.377Z,22.05
2016-07-13T02:03:58.351Z,22.05
2016-07-13T02:04:57.628Z,22.06
2016-07-13T02:05:58.314Z,21.99
2016-07-13T02:06:58.311Z,22.05
2016-07-13T02:07:58.284Z,22.02
2016-07-13T02:08:58.278Z,21.93
2016-07-13T02:09:58.259Z,22.02
2016-07-13T02:10:58.242Z,21.99
2016-07-13T02:11:58.237Z,21.93
2016-07-13T02:12:58.210Z,21.94
2016-07-13T02:13:58.195Z,21.94
2016-07-13T02:14:58.184Z,21.99
2016-07-13T02:15:58.171Z,22.04
2016-07-13T02:16:58.147Z,21.91
2016-07-13T02:17:58.135Z,21.99
2016-07-13T02:18:58.125Z,21.91
2016-07-13T02:19:57.398Z,21.94
2016-07-13T02:20:58.091Z,21.93
2016-07-13T02:21:58.078Z,22.02
2016-07-13T02:22:58.060Z,21.86
2016-07-13T02:23:58.047Z,21.94
2016-07-13T02:24:58.025Z,21.94
2016-07-13T02:25:58.019Z,21.94
2016-07-13T02:26:57.996Z,21.83
2016-07-13T02:27:57.981Z,21.9
2016-07-13T02:28:57.974Z,21.96
2016-07-13T02:29:57.955Z,21.96
2016-07-13T02:30:57.239Z,21.85
2016-07-13T02:31:57.924Z,21.96
2016-07-13T02:32:57.901Z,21.96
2016-07-13T02:33:57.894Z,21.85
2016-07-13T02:34:57.869Z,21.96
2016-07-13T02:35:57.863Z,21.83
2016-07-13T02:36:57.845Z,21.83
2016-07-13T02:37:57.833Z,21.89
2016-07-13T02:38:57.824Z,21.79
2016-07-13T02:39:57.803Z,21.91
2016-07-13T02:40:57.067Z,21.83
2016-07-13T02:41:57.772Z,21.77
2016-07-13T02:42:57.753Z,21.82
2016-07-13T02:43:57.740Z,21.81
2016-07-13T02:44:57.723Z,21.85
2016-07-13T02:45:57.708Z,21.74
2016-07-13T02:46:57.697Z,21.81
2016-07-13T02:47:57.685Z,21.77
2016-07-13T02:48:57.661Z,21.74
2016-07-13T02:49:57.659Z,21.79
2016-07-13T02:50:57.629Z,21.75
2016-07-13T02:51:57.620Z,21.7
2016-07-13T02:52:57.601Z,21.74
2016-07-13T02:53:57.583Z,21.81
2016-07-13T02:54:57.562Z,21.75
2016-07-13T02:55:57.558Z,21.75
2016-07-13T02:56:57.533Z,21.79
2016-07-13T02:57:57.521Z,21.75
2016-07-13T02:58:57.508Z,21.71
2016-07-13T02:59:57.495Z,21.77
2016-07-13T03:00:57.475Z,21.68
2016-07-13T03:01:57.465Z,21.67
2016-07-13T03:02:56.749Z,21.63
2016-07-13T03:03:57.431Z,21.66
2016-07-13T03:04:57.416Z,21.66
2016-07-13T03:05:57.401Z,21.63
2016-07-13T03:06:57.380Z,21.66
2016-07-13T03:07:57.366Z,21.68
2016-07-13T03:08:56.646Z,21.64
2016-07-13T03:09:57.341Z,21.67
2016-07-13T03:10:57.319Z,21.61
2016-07-13T03:11:57.304Z,21.63
2016-07-13T03:12:56.583Z,21.58
2016-07-13T03:13:57.269Z,21.64
2016-07-13T03:14:57.260Z,21.67
2016-07-13T03:15:56.536Z,21.59
2016-07-13T03:16:57.230Z,21.59
2016-07-13T03:17:57.213Z,21.61
2016-07-13T03:18:57.203Z,21.68
2016-07-13T03:19:57.185Z,21.66
2016-07-13T03:20:57.165Z,21.61
2016-07-13T03:21:57.152Z,21.63
2016-07-13T03:22:57.139Z,21.51
2016-07-13T03:23:57.118Z,21.55
2016-07-13T03:24:57.109Z,21.58
2016-07-13T03:25:57.094Z,21.55
2016-07-13T03:26:57.070Z,21.68
2016-07-13T03:27:57.065Z,21.58
2016-07-13T03:28:57.040Z,21.55
2016-07-13T03:29:55.612Z,21.55
2016-07-13T03:30:57.013Z,21.58
2016-07-13T03:31:57.000Z,21.53
2016-07-13T03:32:56.977Z,21.55
2016-07-13T03:33:56.977Z,21.52
2016-07-13T03:34:56.947Z,21.51
2016-07-13T03:35:56.937Z,21.53
2016-07-13T03:36:56.917Z,21.53
2016-07-13T03:37:56.906Z,21.55
2016-07-13T03:38:56.885Z,21.56
2016-07-13T03:39:56.890Z,21.55
2016-07-13T03:40:56.856Z,21.53
2016-07-13T03:41:56.832Z,21.55
2016-07-13T03:42:56.839Z,21.58
2016-07-13T03:43:56.810Z,21.52
2016-07-13T03:44:56.794Z,21.49
2016-07-13T03:45:56.788Z,21.52
2016-07-13T03:46:56.768Z,21.51
2016-07-13T03:47:56.753Z,21.46
2016-07-13T03:48:56.730Z,21.52
2016-07-13T03:49:56.721Z,21.55
2016-07-13T03:50:56.700Z,21.51
2016-07-13T03:51:56.682Z,21.45
2016-07-13T03:52:56.675Z,21.51
2016-07-13T03:53:56.650Z,21.51
2016-07-13T03:54:56.656Z,21.53
2016-07-13T03:55:55.915Z,21.45
2016-07-13T03:56:56.613Z,21.55
2016-07-13T03:57:56.592Z,21.52
2016-07-13T03:58:56.582Z,21.52
2016-07-13T03:59:56.577Z,21.48
2016-07-13T04:00:56.550Z,21.45
2016-07-13T04:01:55.823Z,21.48
2016-07-13T04:02:55.808Z,21.36
2016-07-13T04:03:56.505Z,21.4
2016-07-13T04:04:56.490Z,21.38
2016-07-13T04:05:56.465Z,21.45
2016-07-13T04:06:56.457Z,21.43
2016-07-13T04:07:56.438Z,21.37
2016-07-13T04:08:56.423Z,21.55
2016-07-13T04:09:56.417Z,21.55
2016-07-13T04:10:56.395Z,21.37
2016-07-13T04:11:56.370Z,21.43
2016-07-13T04:12:56.367Z,21.42
2016-07-13T04:13:56.336Z,21.31
2016-07-13T04:14:56.342Z,21.42
2016-07-13T04:15:56.311Z,21.37
2016-07-13T04:16:56.301Z,21.48
2016-07-13T04:17:56.282Z,21.4
2016-07-13T04:18:56.266Z,21.36
2016-07-13T04:19:55.541Z,21.4
2016-07-13T04:20:56.242Z,21.4
2016-07-13T04:21:56.212Z,21.36
2016-07-13T04:22:56.205Z,21.43
2016-07-13T04:23:56.189Z,21.31
2016-07-13T04:24:56.169Z,21.33
2016-07-13T04:25:56.160Z,21.42
2016-07-13T04:26:56.141Z,21.43
2016-07-13T04:27:56.128Z,21.42
2016-07-13T04:28:56.108Z,21.48
2016-07-13T04:29:55.389Z,21.43
2016-07-13T04:30:56.078Z,21.43
2016-07-13T04:31:56.065Z,21.45
2016-07-13T04:32:56.039Z,21.45
2016-07-13T04:33:56.039Z,21.36
2016-07-13T04:34:56.013Z,21.4
2016-07-13T04:35:56.013Z,21.43
2016-07-13T04:36:55.983Z,21.42
2016-07-13T04:37:55.968Z,21.42
2016-07-13T04:38:55.948Z,21.33
2016-07-13T04:39:55.936Z,21.37
2016-07-13T04:40:55.924Z,21.4
2016-07-13T04:41:55.911Z,21.38
2016-07-13T04:42:55.891Z,21.45
2016-07-13T04:43:55.875Z,21.4
2016-07-13T04:44:55.862Z,21.34
2016-07-13T04:45:55.856Z,21.4
2016-07-13T04:46:55.836Z,21.45
2016-07-13T04:47:55.103Z,21.45
2016-07-13T04:48:55.808Z,21.38
2016-07-13T04:49:55.787Z,21.42
2016-07-13T04:50:55.765Z,21.45
2016-07-13T04:51:55.750Z,21.42
2016-07-13T04:52:55.733Z,21.46
2016-07-13T04:53:55.722Z,21.34
2016-07-13T04:54:55.712Z,21.34
2016-07-13T04:55:54.979Z,21.36
2016-07-13T04:56:55.671Z,21.34
2016-07-13T04:57:55.658Z,21.36
2016-07-13T04:58:55.652Z,21.31
2016-07-13T04:59:55.633Z,21.37
2016-07-13T05:00:55.612Z,21.3
2016-07-13T05:01:54.879Z,21.38
2016-07-13T05:02:55.574Z,21.4
2016-07-13T05:03:55.563Z,21.4
2016-07-13T05:04:54.831Z,21.58
2016-07-13T05:05:55.528Z,21.46
2016-07-13T05:06:55.512Z,21.42
2016-07-13T05:07:54.786Z,21.38
2016-07-13T05:08:55.484Z,21.45
2016-07-13T05:09:55.471Z,21.38
2016-07-13T05:10:55.463Z,21.43
2016-07-13T05:11:55.442Z,21.4
2016-07-13T05:12:55.430Z,21.4
2016-07-13T05:13:55.403Z,21.4
2016-07-13T05:14:55.387Z,21.43
2016-07-13T05:15:55.380Z,21.42
2016-07-13T05:16:55.356Z,21.38
2016-07-13T05:17:55.347Z,21.37
2016-07-13T05:18:55.332Z,21.26
2016-07-13T05:19:55.314Z,21.27
2016-07-13T05:20:55.297Z,21.3
2016-07-13T05:21:55.286Z,21.36
2016-07-13T05:22:55.265Z,21.33
2016-07-13T05:23:55.266Z,21.3
2016-07-13T05:24:55.229Z,21.34
2016-07-13T05:25:55.218Z,21.34
2016-07-13T05:26:55.204Z,21.37
2016-07-13T05:27:55.193Z,21.26
2016-07-13T05:28:55.176Z,21.26
2016-07-13T05:29:55.151Z,21.26
2016-07-13T05:30:55.143Z,21.31
2016-07-13T05:31:55.123Z,21.27
2016-07-13T05:32:55.122Z,21.33
2016-07-13T05:33:54.380Z,21.34
2016-07-13T05:34:54.364Z,21.26
2016-07-13T05:35:55.061Z,21.19
2016-07-13T05:36:55.040Z,21.31
2016-07-13T05:37:55.027Z,21.33
2016-07-13T05:38:55.018Z,21.22
2016-07-13T05:39:54.993Z,21.26
2016-07-13T05:40:54.982Z,21.34
2016-07-13T05:41:54.256Z,21.36
2016-07-13T05:42:53.530Z,21.38
2016-07-13T05:43:54.219Z,21.37
2016-07-13T05:44:54.919Z,21.38
2016-07-13T05:45:54.897Z,21.37
2016-07-13T05:46:54.904Z,21.43
2016-07-13T05:47:54.871Z,21.28
2016-07-13T05:48:54.855Z,21.33
2016-07-13T05:49:54.842Z,21.31
2016-07-13T05:50:54.113Z,21.3
2016-07-13T05:51:54.806Z,21.34
2016-07-13T05:52:54.791Z,21.28
2016-07-13T05:53:54.781Z,21.34
2016-07-13T05:54:54.758Z,21.26
2016-07-13T05:55:54.748Z,21.33
2016-07-13T05:56:54.728Z,21.22
2016-07-13T05:57:54.711Z,21.36
2016-07-13T05:58:54.695Z,21.36
2016-07-13T05:59:54.678Z,21.31
2016-07-13T06:00:54.672Z,21.31
2016-07-13T06:01:54.653Z,21.37
2016-07-13T06:02:54.634Z,21.31
2016-07-13T06:03:54.624Z,21.38
2016-07-13T06:04:54.601Z,21.37
2016-07-13T06:05:53.876Z,21.28
2016-07-13T06:06:54.573Z,21.36
2016-07-13T06:07:54.556Z,21.37
2016-07-13T06:08:54.541Z,21.28
2016-07-13T06:09:54.519Z,21.33
2016-07-13T06:10:54.506Z,21.33
2016-07-13T06:11:54.487Z,21.36
2016-07-13T06:12:53.779Z,21.36
2016-07-13T06:13:54.452Z,21.33
2016-07-13T06:14:54.442Z,21.3
2016-07-13T06:15:54.435Z,21.37
2016-07-13T06:16:54.412Z,21.37
2016-07-13T06:17:54.402Z,21.43
2016-07-13T06:18:53.668Z,21.38
2016-07-13T06:19:54.363Z,21.27
2016-07-13T06:20:54.350Z,21.3
2016-07-13T06:21:54.337Z,21.33
2016-07-13T06:22:54.321Z,21.33
2016-07-13T06:23:54.309Z,21.38
2016-07-13T06:24:54.288Z,21.42
2016-07-13T06:25:54.279Z,21.38
2016-07-13T06:26:54.259Z,21.33
2016-07-13T06:27:54.246Z,21.28
2016-07-13T06:28:54.238Z,21.31
2016-07-13T06:29:54.205Z,21.31
2016-07-13T06:30:54.200Z,21.38
2016-07-13T06:31:54.180Z,21.38
2016-07-13T06:32:54.162Z,21.43
2016-07-13T06:33:54.155Z,21.43
2016-07-13T06:34:54.129Z,21.4
2016-07-13T06:35:54.111Z,21.42
2016-07-13T06:36:54.100Z,21.43
2016-07-13T06:37:53.380Z,21.49
2016-07-13T06:38:54.069Z,21.53
2016-07-13T06:39:54.054Z,21.38
2016-07-13T06:40:54.046Z,21.43
2016-07-13T06:41:54.022Z,21.46
2016-07-13T06:42:54.004Z,21.48
2016-07-13T06:43:53.991Z,21.51
2016-07-13T06:44:53.984Z,21.55
2016-07-13T06:45:53.974Z,21.58
2016-07-13T06:46:53.946Z,21.53
2016-07-13T06:47:53.228Z,21.52
2016-07-13T06:48:53.911Z,21.58
2016-07-13T06:49:53.889Z,21.55
2016-07-13T06:50:53.887Z,21.55
2016-07-13T06:51:53.859Z,21.51
2016-07-13T06:52:53.155Z,21.52
2016-07-13T06:53:53.826Z,21.52
2016-07-13T06:54:53.823Z,21.52
2016-07-13T06:55:53.806Z,21.56
2016-07-13T06:56:53.787Z,21.52
2016-07-13T06:57:53.774Z,21.52
2016-07-13T06:58:53.753Z,21.55
2016-07-13T06:59:53.738Z,21.52
2016-07-13T07:00:53.719Z,21.52
2016-07-13T07:01:53.706Z,21.59
2016-07-13T07:02:53.692Z,21.63
2016-07-13T07:03:53.680Z,21.61
2016-07-13T07:04:53.658Z,21.67
2016-07-13T07:05:53.655Z,21.63
2016-07-13T07:06:53.634Z,21.68
2016-07-13T07:07:53.616Z,21.61
2016-07-13T07:08:52.889Z,21.61
2016-07-13T07:09:53.604Z,21.61
2016-07-13T07:10:52.852Z,21.66
2016-07-13T07:11:53.552Z,21.61
2016-07-13T07:12:53.536Z,21.7
2016-07-13T07:13:53.530Z,21.61
2016-07-13T07:14:53.501Z,21.59
2016-07-13T07:15:52.779Z,21.64
2016-07-13T07:16:53.468Z,21.66
2016-07-13T07:17:53.448Z,21.58
2016-07-13T07:18:53.441Z,21.63
2016-07-13T07:19:53.420Z,21.63
2016-07-13T07:20:53.417Z,21.73
2016-07-13T07:21:53.397Z,21.7
2016-07-13T07:22:53.376Z,21.73
2016-07-13T07:23:53.369Z,21.7
2016-07-13T07:24:53.347Z,21.58
2016-07-13T07:25:53.325Z,21.63
2016-07-13T07:26:53.324Z,21.63
2016-07-13T07:27:53.308Z,21.59
2016-07-13T07:28:53.284Z,21.71
2016-07-13T07:29:53.265Z,21.68
2016-07-13T07:30:53.259Z,21.63
2016-07-13T07:31:53.241Z,21.66
2016-07-13T07:32:53.221Z,21.7
2016-07-13T07:33:53.208Z,21.73
2016-07-13T07:34:53.193Z,21.7
2016-07-13T07:35:52.468Z,21.73
2016-07-13T07:36:53.165Z,21.82
2016-07-13T07:37:53.196Z,21.91
2016-07-13T07:38:52.426Z,21.83
2016-07-13T07:39:53.113Z,21.86
2016-07-13T07:40:52.388Z,21.9
2016-07-13T07:41:53.081Z,21.83
2016-07-13T07:42:53.053Z,21.91
2016-07-13T07:43:53.048Z,21.86
2016-07-13T07:44:53.027Z,21.79
2016-07-13T07:45:53.014Z,21.81
2016-07-13T07:46:53.005Z,21.81
2016-07-13T07:47:52.982Z,21.81
2016-07-13T07:48:52.962Z,21.77
2016-07-13T07:49:52.950Z,21.71
2016-07-13T07:50:52.932Z,21.85
2016-07-13T07:51:52.923Z,21.83
2016-07-13T07:52:52.905Z,21.9
2016-07-13T07:53:52.888Z,21.96
2016-07-13T07:54:52.873Z,21.85
2016-07-13T07:55:52.857Z,21.89
2016-07-13T07:56:52.848Z,21.93
2016-07-13T07:57:52.833Z,21.93
2016-07-13T07:58:52.815Z,22.02
2016-07-13T07:59:52.793Z,22.01
2016-07-13T08:00:52.780Z,22.04
2016-07-13T08:01:52.054Z,22.04
2016-07-13T08:02:52.750Z,22.02
2016-07-13T08:03:52.732Z,22.09
2016-07-13T08:04:52.727Z,21.99
2016-07-13T08:05:52.706Z,22.01
2016-07-13T08:06:51.978Z,22.11
2016-07-13T08:07:52.671Z,22.04
2016-07-13T08:08:52.651Z,22.01
2016-07-13T08:09:51.933Z,21.94
2016-07-13T08:10:52.623Z,21.94
2016-07-13T08:11:52.602Z,21.94
2016-07-13T08:12:52.592Z,21.91
2016-07-13T08:13:52.573Z,22.01
2016-07-13T08:14:52.556Z,22.15
2016-07-13T08:15:52.547Z,22.17
2016-07-13T08:16:52.534Z,22.14
2016-07-13T08:17:51.096Z,22.19
2016-07-13T08:18:52.500Z,22.15
2016-07-13T08:19:52.486Z,22.12
2016-07-13T08:20:52.481Z,22.11
2016-07-13T08:21:52.458Z,22.15
2016-07-13T08:22:52.436Z,22.11
2016-07-13T08:23:52.431Z,22.05
2016-07-13T08:24:52.408Z,22.12
2016-07-13T08:25:52.390Z,22.06
2016-07-13T08:26:52.375Z,22.09
2016-07-13T08:27:52.365Z,22.11
2016-07-13T08:28:52.355Z,22.15
2016-07-13T08:29:52.325Z,22.05
2016-07-13T08:30:51.616Z,21.93
2016-07-13T08:31:52.287Z,21.85
2016-07-13T08:32:52.282Z,21.86
2016-07-13T08:33:52.271Z,21.89
2016-07-13T08:34:52.248Z,21.89
2016-07-13T08:35:52.236Z,21.89
2016-07-13T08:36:52.222Z,21.94
2016-07-13T08:37:52.245Z,21.89
2016-07-13T08:38:52.191Z,21.93
2016-07-13T08:39:52.183Z,21.9
2016-07-13T08:40:52.165Z,21.82
2016-07-13T08:41:51.435Z,21.93
2016-07-13T08:42:52.121Z,21.96
2016-07-13T08:43:52.120Z,21.96
2016-07-13T08:44:52.098Z,22.04
2016-07-13T08:45:52.081Z,22.12
2016-07-13T08:46:52.068Z,22.17
2016-07-13T08:47:52.046Z,22.15
2016-07-13T08:48:52.033Z,22.21
2016-07-13T08:49:52.017Z,22.23
2016-07-13T08:50:52.006Z,22.29
2016-07-13T08:51:51.989Z,22.15
2016-07-13T08:52:51.966Z,22.05
2016-07-13T08:53:51.954Z,22.06
2016-07-13T08:54:51.933Z,22.17
2016-07-13T08:55:51.918Z,22.14
2016-07-13T08:56:51.919Z,22.26
2016-07-13T08:57:51.891Z,22.31
2016-07-13T08:58:51.884Z,22.39
2016-07-13T08:59:51.154Z,22.39
2016-07-13T09:00:51.840Z,22.49
2016-07-13T09:01:51.828Z,22.45
2016-07-13T09:02:51.805Z,22.44
2016-07-13T09:03:51.797Z,22.48
2016-07-13T09:04:51.790Z,22.49
2016-07-13T09:05:51.766Z,22.59
2016-07-13T09:06:51.752Z,22.57
2016-07-13T09:07:51.740Z,22.57
2016-07-13T09:08:51.727Z,22.51
2016-07-13T09:09:51.705Z,22.64
2016-07-13T09:10:51.690Z,22.52
2016-07-13T09:11:51.691Z,22.57
2016-07-13T09:12:50.959Z,22.57
2016-07-13T09:13:51.660Z,22.6
2016-07-13T09:14:51.643Z,22.59
2016-07-13T09:15:51.614Z,22.66
2016-07-13T09:16:51.595Z,22.69
2016-07-13T09:17:51.587Z,22.69
2016-07-13T09:18:51.563Z,22.69
2016-07-13T09:19:50.832Z,22.67
2016-07-13T09:20:51.548Z,22.75
2016-07-13T09:21:51.521Z,22.81
2016-07-13T09:22:51.507Z,22.75
2016-07-13T09:23:51.486Z,22.81
2016-07-13T09:24:51.473Z,22.81
2016-07-13T09:25:51.453Z,22.82
2016-07-13T09:26:51.440Z,22.76
2016-07-13T09:27:51.434Z,22.75
2016-07-13T09:28:51.569Z,22.78
2016-07-13T09:29:51.401Z,22.79
2016-07-13T09:30:51.378Z,22.85
2016-07-13T09:31:51.361Z,22.78
2016-07-13T09:32:51.353Z,22.86
2016-07-13T09:33:51.345Z,22.84
2016-07-13T09:34:51.333Z,22.97
2016-07-13T09:35:51.298Z,22.99
2016-07-13T09:36:51.297Z,22.99
2016-07-13T09:37:51.374Z,22.94
2016-07-13T09:38:51.246Z,22.99
2016-07-13T09:39:51.243Z,22.99
2016-07-13T09:40:51.227Z,23.03
2016-07-13T09:41:51.206Z,23.03
2016-07-13T09:42:51.192Z,23.01
2016-07-13T09:43:51.184Z,23.01
2016-07-13T09:44:51.170Z,23
2016-07-13T09:45:51.148Z,23.03
2016-07-13T09:46:51.134Z,23.03
2016-07-13T09:47:49.705Z,23.01
2016-07-13T09:48:51.106Z,23.01
2016-07-13T09:49:51.088Z,23.07
2016-07-13T09:50:51.068Z,22.99
2016-07-13T09:51:51.057Z,23.01
2016-07-13T09:52:51.040Z,23.07
2016-07-13T09:53:51.020Z,23.04
2016-07-13T09:54:51.015Z,23.11
2016-07-13T09:55:51.004Z,23.16
2016-07-13T09:56:50.983Z,23.03
2016-07-13T09:57:50.965Z,23.14
2016-07-13T09:58:50.953Z,23.04
2016-07-13T09:59:50.939Z,23.04
2016-07-13T10:00:50.928Z,23.06
2016-07-13T10:01:50.905Z,23.04
2016-07-13T10:02:50.890Z,23.04
2016-07-13T10:03:50.872Z,23.12
2016-07-13T10:04:50.869Z,23.04
2016-07-13T10:05:50.860Z,23.06
2016-07-13T10:06:50.840Z,23.06
2016-07-13T10:07:50.812Z,23.07
2016-07-13T10:08:50.092Z,23.07
2016-07-13T10:09:50.791Z,23.06
2016-07-13T10:10:50.777Z,23.12
2016-07-13T10:11:50.047Z,23.14
2016-07-13T10:12:50.040Z,23.06
2016-07-13T10:13:50.730Z,23.11
2016-07-13T10:14:50.708Z,23.09
2016-07-13T10:15:50.686Z,23.14
2016-07-13T10:16:50.678Z,23.14
2016-07-13T10:17:50.670Z,23.12
2016-07-13T10:18:49.949Z,23.06
2016-07-13T10:19:50.636Z,23.12
2016-07-13T10:20:50.612Z,23.11
2016-07-13T10:21:50.600Z,23.07
2016-07-13T10:22:50.608Z,23.16
2016-07-13T10:23:50.570Z,23.07
2016-07-13T10:24:50.564Z,23.07
2016-07-13T10:25:50.544Z,23.14
2016-07-13T10:26:50.533Z,23.18
2016-07-13T10:27:50.511Z,23.15
2016-07-13T10:28:50.497Z,23.07
2016-07-13T10:29:50.484Z,23.16
2016-07-13T10:30:50.476Z,23.15
2016-07-13T10:31:50.455Z,23.16
2016-07-13T10:32:50.443Z,23.18
2016-07-13T10:33:50.429Z,23.14
2016-07-13T10:34:50.418Z,23.11
2016-07-13T10:35:50.392Z,23.14
2016-07-13T10:36:50.377Z,23.15
2016-07-13T10:37:50.360Z,23.15
2016-07-13T10:38:50.361Z,23.16
2016-07-13T10:39:50.329Z,23.18
2016-07-13T10:40:50.318Z,23.35
2016-07-13T10:41:50.323Z,23.18
2016-07-13T10:42:49.588Z,23.18
2016-07-13T10:43:50.274Z,23.18
2016-07-13T10:44:50.257Z,23.14
2016-07-13T10:45:50.240Z,23.23
2016-07-13T10:46:50.228Z,23.22
2016-07-13T10:47:50.216Z,23.26
2016-07-13T10:48:50.204Z,23.22
2016-07-13T10:49:50.187Z,23.19
2016-07-13T10:50:49.688Z,23.19
2016-07-13T10:51:49.453Z,23.23
2016-07-13T10:52:50.135Z,23.23
2016-07-13T10:53:50.139Z,23.15
2016-07-13T10:54:50.127Z,23.18
2016-07-13T10:55:50.112Z,23.25
2016-07-13T10:56:50.096Z,23.21
2016-07-13T10:57:50.071Z,23.26
2016-07-13T10:58:50.056Z,23.21
2016-07-13T10:59:50.044Z,23.23
2016-07-13T11:00:50.022Z,23.19
2016-07-13T11:01:50.007Z,23.18
2016-07-13T11:02:49.991Z,23.29
2016-07-13T11:03:49.980Z,23.32
2016-07-13T11:04:49.975Z,23.23
2016-07-13T11:05:49.941Z,23.22
2016-07-13T11:06:49.932Z,23.22
2016-07-13T11:07:49.931Z,23.22
2016-07-13T11:08:49.892Z,23.22
2016-07-13T11:09:49.881Z,23.29
2016-07-13T11:10:49.886Z,23.25
2016-07-13T11:11:49.856Z,23.22
2016-07-13T11:12:49.831Z,23.26
2016-07-13T11:13:49.831Z,23.29
2016-07-13T11:14:49.813Z,23.35
2016-07-13T11:15:49.796Z,23.31
2016-07-13T11:16:49.782Z,23.25
2016-07-13T11:17:49.777Z,23.37
2016-07-13T11:18:49.757Z,23.22
2016-07-13T11:19:49.736Z,23.34
2016-07-13T11:20:49.014Z,23.26
2016-07-13T11:21:49.703Z,23.34
2016-07-13T11:22:49.704Z,23.26
2016-07-13T11:23:48.966Z,23.37
2016-07-13T11:24:49.662Z,23.32
2016-07-13T11:25:49.651Z,23.26
2016-07-13T11:26:49.634Z,23.35
2016-07-13T11:27:48.908Z,23.38
2016-07-13T11:28:48.891Z,23.37
2016-07-13T11:29:49.584Z,23.29
2016-07-13T11:30:49.583Z,23.29
2016-07-13T11:31:49.563Z,23.34
2016-07-13T11:32:49.544Z,23.26
2016-07-13T11:33:49.531Z,23.37
2016-07-13T11:34:49.512Z,23.31
2016-07-13T11:35:49.507Z,23.37
2016-07-13T11:36:49.488Z,23.31
2016-07-13T11:37:49.518Z,23.32
2016-07-13T11:38:49.459Z,23.26
2016-07-13T11:39:49.450Z,23.35
2016-07-13T11:40:49.424Z,23.37
2016-07-13T11:41:49.408Z,23.42
2016-07-13T11:42:49.403Z,23.44
2016-07-13T11:43:48.666Z,23.41
2016-07-13T11:44:49.370Z,23.38
2016-07-13T11:45:48.638Z,23.39
2016-07-13T11:46:48.634Z,23.29
2016-07-13T11:47:49.328Z,23.16
2016-07-13T11:48:49.312Z,23.15
2016-07-13T11:49:49.291Z,22.99
2016-07-13T11:50:49.280Z,22.89
2016-07-13T11:51:49.264Z,22.89
2016-07-13T11:52:49.259Z,22.89
2016-07-13T11:53:49.241Z,22.89
2016-07-13T11:54:49.220Z,22.79
2016-07-13T11:55:48.490Z,22.81
2016-07-13T11:56:49.186Z,22.84
2016-07-13T11:57:49.169Z,22.89
2016-07-13T11:58:49.169Z,22.86
2016-07-13T11:59:49.148Z,22.97
2016-07-13T12:00:48.505Z,23.03
2016-07-13T12:01:48.401Z,23.01
2016-07-13T12:02:49.112Z,23.03
2016-07-13T12:03:49.099Z,22.99
2016-07-13T12:04:49.074Z,23
2016-07-13T12:05:49.058Z,23.06
2016-07-13T12:06:48.400Z,23.15
2016-07-13T12:07:49.017Z,23
2016-07-13T12:08:49.007Z,23.07
2016-07-13T12:09:48.994Z,23.07
2016-07-13T12:10:48.977Z,23.07
2016-07-13T12:11:48.986Z,23.07
2016-07-13T12:12:48.946Z,23
2016-07-13T12:13:48.936Z,23.11
2016-07-13T12:14:48.922Z,23.09
2016-07-13T12:15:48.901Z,23.16
2016-07-13T12:16:48.879Z,23.19
2016-07-13T12:17:48.874Z,23.18
2016-07-13T12:18:48.173Z,23.18
2016-07-13T12:19:48.839Z,23.21
2016-07-13T12:20:48.841Z,23.18
2016-07-13T12:21:48.819Z,23.22
2016-07-13T12:22:48.804Z,23.35
2016-07-13T12:23:48.777Z,23.37
2016-07-13T12:24:48.754Z,23.35
2016-07-13T12:25:48.752Z,23.38
2016-07-13T12:26:48.738Z,23.45
2016-07-13T12:27:48.718Z,23.38
2016-07-13T12:28:48.702Z,23.32
2016-07-13T12:29:48.682Z,23.29
2016-07-13T12:30:48.675Z,23.21
2016-07-13T12:31:48.656Z,23.34
2016-07-13T12:32:48.649Z,23.25
2016-07-13T12:33:47.914Z,23.21
2016-07-13T12:34:48.625Z,23.22
2016-07-13T12:35:48.603Z,23.31
2016-07-13T12:36:48.584Z,23.22
2016-07-13T12:37:48.568Z,23.34
2016-07-13T12:38:48.551Z,23.34
2016-07-13T12:39:48.582Z,23.26
2016-07-13T12:40:47.838Z,23.31
2016-07-13T12:41:48.502Z,23.35
2016-07-13T12:42:48.497Z,23.35
2016-07-13T12:43:48.476Z,23.29
2016-07-13T12:44:48.462Z,23.26
2016-07-13T12:45:48.456Z,23.26
2016-07-13T12:46:48.431Z,23.19
2016-07-13T12:47:48.442Z,23.29
2016-07-13T12:48:48.408Z,23.34
2016-07-13T12:49:47.687Z,23.44
2016-07-13T12:50:48.382Z,23.49
2016-07-13T12:51:48.364Z,23.56
2016-07-13T12:52:48.332Z,23.57
2016-07-13T12:53:47.629Z,23.57